Meteo

Previsioni per il volo, messo gentilmente a disposizione da www.datameteo.com

per info sul servizio, contattare info@datameteo.it


Metar LIMZ

Available data for LIMZ from the past 2 hours
LEVALDIGI
Metar
LIMZ 251250Z 30003KT 9999 SCT030 24/13 Q1017

12:50 UTC

Wind: 300° 3kt

Visibility: 9999 m

Sky: SCT 3000 ft

Temp: 24 deg C / 75.2 deg F

Dewpoint: 13 deg C / 55.4 deg F

Pressure: 1017 hPa

TAF
TAF LIMZ 251100Z 2512/2612 04007KT CAVOK

Gif Infrarosso


Gif Nuvole


Ultima immagine Infrarosso


Ultima immagine Nuvole


Gif Pioggia